首页
METAR-TAF:

METAR-TAF

机场 :

奈洛比, 肯尼亚

纬度: 01-19S, 经度: 036-49E, 海拔: 1683米

当前天气观测

该预报发布于40分钟前的13:00 UTC
风速14节,风向东转东北
温度 27°C
湿度 42%
气压 1019 hPa
能见度10公里或以上
散云层高于2900英尺

METAR: HKNW 011300Z 07014KT 9999 SCT029 27/13 Q1019

时间: 16:40 (13:40 UTC)

预报

该预报发布于2小时和40分钟前的11:00 UTC
预报有效从01日的 12点(UTC)到 02日的 06点(UTC)
风速10节,风向东转东北
能见度10公里或以上
多云层高于2300英尺
短暂存在
从 01日的 12点(UTC)到 01日的 18点(UTC)
少量云层高于2400英尺, 积雨云.
散云层高于2500英尺
成为
从 01日的 20点(UTC)到 01日的 23点(UTC)
风速5节,风向多变
多云层高于1900英尺
短暂存在
从 02日的 00点(UTC)到 02日的 06点(UTC)
能見度: 5000
多云层高于500英尺
多云层高于1600英尺
多云层高于8000英尺
轻雾

TAF: HKNW 011100Z 0112/0206 07010KT 9999 BKN023 TEMPO 0112/0118 FEW024CB SCT025 BECMG 0120/0123 VRB05KT BKN019 TEMPO 0200/0206 5000 BR BKN005 BKN016 BKN080

超过4000个机场的气象观测和天气预报(METAR&TAF报告)。

可查询的气象台以黄色和红色小点在地图上表示。

将鼠标移到小点上方,可查看气象台名称。

然后点击查看天气观测和预报。

如需切换地图:点击带黑十字的绿色按钮放大地图;点击带横线的绿色按钮缩小地图;或者点击绿色箭头查看邻近地区的地图。


METAR-TAF: